sensor_id;sensor_type;location;lat;lon;timestamp;P1;durP1;ratioP1;P2;durP2;ratioP2
36725;SDS011;44936;52.086;5.150;2024-01-16T00:02:22;0.00;;;0.00;;
36725;SDS011;44936;52.086;5.150;2024-01-16T00:05:30;0.00;;;0.00;;
36725;SDS011;44936;52.086;5.150;2024-01-16T00:07:59;0.00;;;0.00;;
36725;SDS011;44936;52.086;5.150;2024-01-16T00:11:01;0.00;;;0.00;;
36725;SDS011;44936;52.086;5.150;2024-01-16T00:13:59;0.00;;;0.00;;
36725;SDS011;44936;52.086;5.150;2024-01-16T00:19:11;0.00;;;0.00;;
36725;SDS011;44936;52.086;5.150;2024-01-16T00:21:40;0.00;;;0.00;;
36725;SDS011;44936;52.086;5.150;2024-01-16T00:24:18;0.00;;;0.00;;
36725;SDS011;44936;52.086;5.150;2024-01-16T00:26:43;0.00;;;0.00;;
36725;SDS011;44936;52.086;5.150;2024-01-16T00:29:32;0.00;;;0.00;;
36725;SDS011;44936;52.086;5.150;2024-01-16T00:32:34;0.00;;;0.00;;
36725;SDS011;44936;52.086;5.150;2024-01-16T00:37:29;0.00;;;0.00;;
36725;SDS011;44936;52.086;5.150;2024-01-16T00:40:00;0.00;;;0.00;;
36725;SDS011;44936;52.086;5.150;2024-01-16T00:42:33;0.00;;;0.00;;
36725;SDS011;44936;52.086;5.150;2024-01-16T00:45:28;0.00;;;0.00;;
36725;SDS011;44936;52.086;5.150;2024-01-16T00:48:11;0.00;;;0.00;;
36725;SDS011;44936;52.086;5.150;2024-01-16T00:50:54;0.00;;;0.00;;
36725;SDS011;44936;52.086;5.150;2024-01-16T00:53:21;0.00;;;0.00;;
36725;SDS011;44936;52.086;5.150;2024-01-16T00:56:00;0.00;;;0.00;;
36725;SDS011;44936;52.086;5.150;2024-01-16T00:58:34;0.00;;;0.00;;
36725;SDS011;44936;52.086;5.150;2024-01-16T01:01:03;0.00;;;0.00;;
36725;SDS011;44936;52.086;5.150;2024-01-16T01:03:50;0.00;;;0.00;;
36725;SDS011;44936;52.086;5.150;2024-01-16T01:06:35;0.50;;;0.17;;
36725;SDS011;44936;52.086;5.150;2024-01-16T01:09:30;5.45;;;0.40;;
36725;SDS011;44936;52.086;5.150;2024-01-16T01:12:17;2.17;;;0.43;;
36725;SDS011;44936;52.086;5.150;2024-01-16T01:17:41;2.05;;;0.30;;
36725;SDS011;44936;52.086;5.150;2024-01-16T01:20:27;0.47;;;0.30;;
36725;SDS011;44936;52.086;5.150;2024-01-16T01:22:53;1.08;;;0.20;;
36725;SDS011;44936;52.086;5.150;2024-01-16T01:25:18;1.52;;;0.20;;
36725;SDS011;44936;52.086;5.150;2024-01-16T01:27:44;4.55;;;0.60;;
36725;SDS011;44936;52.086;5.150;2024-01-16T01:30:13;1.88;;;0.30;;
36725;SDS011;44936;52.086;5.150;2024-01-16T01:32:38;2.47;;;0.65;;
36725;SDS011;44936;52.086;5.150;2024-01-16T01:35:04;2.55;;;0.40;;
36725;SDS011;44936;52.086;5.150;2024-01-16T01:37:33;1.73;;;0.20;;
36725;SDS011;44936;52.086;5.150;2024-01-16T01:40:16;2.90;;;0.52;;
36725;SDS011;44936;52.086;5.150;2024-01-16T01:49:15;2.55;;;0.55;;
36725;SDS011;44936;52.086;5.150;2024-01-16T01:51:52;1.95;;;0.10;;
36725;SDS011;44936;52.086;5.150;2024-01-16T01:54:21;4.70;;;0.40;;
36725;SDS011;44936;52.086;5.150;2024-01-16T01:57:16;4.95;;;0.60;;
36725;SDS011;44936;52.086;5.150;2024-01-16T02:02:56;0.98;;;0.13;;
36725;SDS011;44936;52.086;5.150;2024-01-16T02:05:49;2.63;;;0.40;;
36725;SDS011;44936;52.086;5.150;2024-01-16T02:08:26;0.47;;;0.20;;
36725;SDS011;44936;52.086;5.150;2024-01-16T02:11:12;2.17;;;0.10;;
36725;SDS011;44936;52.086;5.150;2024-01-16T02:13:50;0.00;;;0.00;;
36725;SDS011;44936;52.086;5.150;2024-01-16T02:16:35;0.00;;;0.00;;
36725;SDS011;44936;52.086;5.150;2024-01-16T02:19:12;0.00;;;0.00;;
36725;SDS011;44936;52.086;5.150;2024-01-16T02:21:49;0.00;;;0.00;;
36725;SDS011;44936;52.086;5.150;2024-01-16T02:24:24;0.00;;;0.00;;
36725;SDS011;44936;52.086;5.150;2024-01-16T02:27:09;0.00;;;0.00;;
36725;SDS011;44936;52.086;5.150;2024-01-16T02:29:39;0.00;;;0.00;;
36725;SDS011;44936;52.086;5.150;2024-01-16T02:32:23;0.00;;;0.00;;
36725;SDS011;44936;52.086;5.150;2024-01-16T02:35:00;0.00;;;0.00;;
36725;SDS011;44936;52.086;5.150;2024-01-16T02:37:45;0.00;;;0.00;;
36725;SDS011;44936;52.086;5.150;2024-01-16T02:40:27;0.00;;;0.00;;
36725;SDS011;44936;52.086;5.150;2024-01-16T02:43:22;0.00;;;0.00;;
36725;SDS011;44936;52.086;5.150;2024-01-16T02:46:04;0.00;;;0.00;;
36725;SDS011;44936;52.086;5.150;2024-01-16T02:48:31;0.00;;;0.00;;
36725;SDS011;44936;52.086;5.150;2024-01-16T02:51:17;0.00;;;0.00;;
36725;SDS011;44936;52.086;5.150;2024-01-16T02:54:03;0.00;;;0.00;;
36725;SDS011;44936;52.086;5.150;2024-01-16T02:56:33;0.00;;;0.00;;
36725;SDS011;44936;52.086;5.150;2024-01-16T02:58:59;0.00;;;0.00;;
36725;SDS011;44936;52.086;5.150;2024-01-16T03:02:12;0.00;;;0.00;;
36725;SDS011;44936;52.086;5.150;2024-01-16T03:04:55;0.00;;;0.00;;
36725;SDS011;44936;52.086;5.150;2024-01-16T03:07:41;0.00;;;0.00;;
36725;SDS011;44936;52.086;5.150;2024-01-16T03:13:21;0.00;;;0.00;;
36725;SDS011;44936;52.086;5.150;2024-01-16T03:16:31;0.00;;;0.00;;
36725;SDS011;44936;52.086;5.150;2024-01-16T03:19:12;0.00;;;0.00;;
36725;SDS011;44936;52.086;5.150;2024-01-16T03:21:58;0.00;;;0.00;;
36725;SDS011;44936;52.086;5.150;2024-01-16T03:24:32;0.00;;;0.00;;
36725;SDS011;44936;52.086;5.150;2024-01-16T03:27:20;0.00;;;0.00;;
36725;SDS011;44936;52.086;5.150;2024-01-16T03:30:08;0.00;;;0.00;;
36725;SDS011;44936;52.086;5.150;2024-01-16T03:32:50;0.00;;;0.00;;
36725;SDS011;44936;52.086;5.150;2024-01-16T03:35:15;0.00;;;0.00;;
36725;SDS011;44936;52.086;5.150;2024-01-16T03:40:40;0.00;;;0.00;;
36725;SDS011;44936;52.086;5.150;2024-01-16T03:43:08;0.00;;;0.00;;
36725;SDS011;44936;52.086;5.150;2024-01-16T03:45:36;0.00;;;0.00;;
36725;SDS011;44936;52.086;5.150;2024-01-16T03:48:27;0.00;;;0.00;;
36725;SDS011;44936;52.086;5.150;2024-01-16T03:54:09;0.00;;;0.00;;
36725;SDS011;44936;52.086;5.150;2024-01-16T03:56:52;0.00;;;0.00;;
36725;SDS011;44936;52.086;5.150;2024-01-16T03:59:30;0.00;;;0.00;;
36725;SDS011;44936;52.086;5.150;2024-01-16T04:02:32;0.00;;;0.00;;
36725;SDS011;44936;52.086;5.150;2024-01-16T04:05:17;0.00;;;0.00;;
36725;SDS011;44936;52.086;5.150;2024-01-16T04:08:03;0.00;;;0.00;;
36725;SDS011;44936;52.086;5.150;2024-01-16T04:10:28;0.00;;;0.00;;
36725;SDS011;44936;52.086;5.150;2024-01-16T04:13:04;0.00;;;0.00;;
36725;SDS011;44936;52.086;5.150;2024-01-16T04:15:53;0.00;;;0.00;;
36725;SDS011;44936;52.086;5.150;2024-01-16T04:18:21;0.00;;;0.00;;
36725;SDS011;44936;52.086;5.150;2024-01-16T04:20:52;0.00;;;0.00;;
36725;SDS011;44936;52.086;5.150;2024-01-16T04:23:17;0.00;;;0.00;;
36725;SDS011;44936;52.086;5.150;2024-01-16T04:25:43;0.00;;;0.00;;
36725;SDS011;44936;52.086;5.150;2024-01-16T04:28:08;0.00;;;0.00;;
36725;SDS011;44936;52.086;5.150;2024-01-16T04:30:54;0.00;;;0.00;;
36725;SDS011;44936;52.086;5.150;2024-01-16T04:33:22;0.00;;;0.00;;
36725;SDS011;44936;52.086;5.150;2024-01-16T04:35:50;0.00;;;0.00;;
36725;SDS011;44936;52.086;5.150;2024-01-16T04:38:15;0.00;;;0.00;;
36725;SDS011;44936;52.086;5.150;2024-01-16T04:40:43;0.00;;;0.00;;
36725;SDS011;44936;52.086;5.150;2024-01-16T04:43:09;0.00;;;0.00;;
36725;SDS011;44936;52.086;5.150;2024-01-16T04:45:34;0.00;;;0.00;;
36725;SDS011;44936;52.086;5.150;2024-01-16T04:48:02;0.00;;;0.00;;
36725;SDS011;44936;52.086;5.150;2024-01-16T04:50:30;0.00;;;0.00;;
36725;SDS011;44936;52.086;5.150;2024-01-16T04:53:01;0.00;;;0.00;;
36725;SDS011;44936;52.086;5.150;2024-01-16T04:55:49;0.00;;;0.00;;
36725;SDS011;44936;52.086;5.150;2024-01-16T04:58:20;0.00;;;0.00;;
36725;SDS011;44936;52.086;5.150;2024-01-16T05:00:51;0.00;;;0.00;;
36725;SDS011;44936;52.086;5.150;2024-01-16T05:03:19;0.00;;;0.00;;
36725;SDS011;44936;52.086;5.150;2024-01-16T05:05:59;0.00;;;0.00;;
36725;SDS011;44936;52.086;5.150;2024-01-16T05:09:02;0.00;;;0.00;;
36725;SDS011;44936;52.086;5.150;2024-01-16T05:11:52;0.00;;;0.00;;
36725;SDS011;44936;52.086;5.150;2024-01-16T05:14:53;0.00;;;0.00;;
36725;SDS011;44936;52.086;5.150;2024-01-16T05:17:26;0.00;;;0.00;;
36725;SDS011;44936;52.086;5.150;2024-01-16T05:19:54;0.00;;;0.00;;
36725;SDS011;44936;52.086;5.150;2024-01-16T05:22:23;0.00;;;0.00;;
36725;SDS011;44936;52.086;5.150;2024-01-16T05:24:52;0.00;;;0.00;;
36725;SDS011;44936;52.086;5.150;2024-01-16T05:27:29;0.00;;;0.00;;
36725;SDS011;44936;52.086;5.150;2024-01-16T05:30:04;0.00;;;0.00;;
36725;SDS011;44936;52.086;5.150;2024-01-16T05:32:47;0.00;;;0.00;;
36725;SDS011;44936;52.086;5.150;2024-01-16T05:35:28;0.00;;;0.00;;
36725;SDS011;44936;52.086;5.150;2024-01-16T05:38:14;0.00;;;0.00;;
36725;SDS011;44936;52.086;5.150;2024-01-16T05:40:57;0.00;;;0.00;;
36725;SDS011;44936;52.086;5.150;2024-01-16T05:43:25;0.00;;;0.00;;
36725;SDS011;44936;52.086;5.150;2024-01-16T05:45:54;0.00;;;0.00;;
36725;SDS011;44936;52.086;5.150;2024-01-16T05:48:20;0.00;;;0.00;;
36725;SDS011;44936;52.086;5.150;2024-01-16T05:50:45;0.00;;;0.00;;
36725;SDS011;44936;52.086;5.150;2024-01-16T05:53:10;0.00;;;0.00;;
36725;SDS011;44936;52.086;5.150;2024-01-16T05:55:36;0.00;;;0.00;;
36725;SDS011;44936;52.086;5.150;2024-01-16T05:58:02;0.00;;;0.00;;
36725;SDS011;44936;52.086;5.150;2024-01-16T06:00:27;0.00;;;0.00;;
36725;SDS011;44936;52.086;5.150;2024-01-16T06:02:52;0.00;;;0.00;;
36725;SDS011;44936;52.086;5.150;2024-01-16T06:05:30;0.00;;;0.00;;
36725;SDS011;44936;52.086;5.150;2024-01-16T06:08:11;0.00;;;0.00;;
36725;SDS011;44936;52.086;5.150;2024-01-16T06:10:47;0.00;;;0.00;;
36725;SDS011;44936;52.086;5.150;2024-01-16T06:14:11;0.00;;;0.00;;
36725;SDS011;44936;52.086;5.150;2024-01-16T06:16:53;0.00;;;0.00;;
36725;SDS011;44936;52.086;5.150;2024-01-16T06:19:27;0.00;;;0.00;;
36725;SDS011;44936;52.086;5.150;2024-01-16T06:22:33;0.00;;;0.00;;
36725;SDS011;44936;52.086;5.150;2024-01-16T06:25:21;0.00;;;0.00;;
36725;SDS011;44936;52.086;5.150;2024-01-16T06:28:14;0.00;;;0.00;;
36725;SDS011;44936;52.086;5.150;2024-01-16T06:31:17;0.00;;;0.00;;
36725;SDS011;44936;52.086;5.150;2024-01-16T06:33:51;0.00;;;0.00;;
36725;SDS011;44936;52.086;5.150;2024-01-16T06:36:29;0.00;;;0.00;;
36725;SDS011;44936;52.086;5.150;2024-01-16T06:39:18;0.00;;;0.00;;
36725;SDS011;44936;52.086;5.150;2024-01-16T06:41:53;0.00;;;0.00;;
36725;SDS011;44936;52.086;5.150;2024-01-16T06:44:24;0.00;;;0.00;;
36725;SDS011;44936;52.086;5.150;2024-01-16T06:46:57;0.00;;;0.00;;
36725;SDS011;44936;52.086;5.150;2024-01-16T06:49:42;0.00;;;0.00;;
36725;SDS011;44936;52.086;5.150;2024-01-16T06:52:48;0.00;;;0.00;;
36725;SDS011;44936;52.086;5.150;2024-01-16T06:55:27;0.00;;;0.00;;
36725;SDS011;44936;52.086;5.150;2024-01-16T07:00:45;0.00;;;0.00;;
36725;SDS011;44936;52.086;5.150;2024-01-16T07:03:29;0.00;;;0.00;;
36725;SDS011;44936;52.086;5.150;2024-01-16T07:05:57;0.00;;;0.00;;
36725;SDS011;44936;52.086;5.150;2024-01-16T07:08:22;0.00;;;0.00;;
36725;SDS011;44936;52.086;5.150;2024-01-16T07:10:48;0.00;;;0.00;;
36725;SDS011;44936;52.086;5.150;2024-01-16T07:13:13;0.00;;;0.00;;
36725;SDS011;44936;52.086;5.150;2024-01-16T07:15:39;0.00;;;0.00;;
36725;SDS011;44936;52.086;5.150;2024-01-16T07:18:04;0.00;;;0.00;;
36725;SDS011;44936;52.086;5.150;2024-01-16T07:20:41;0.00;;;0.00;;
36725;SDS011;44936;52.086;5.150;2024-01-16T07:23:27;0.00;;;0.00;;
36725;SDS011;44936;52.086;5.150;2024-01-16T07:25:56;0.00;;;0.00;;
36725;SDS011;44936;52.086;5.150;2024-01-16T07:31:30;0.00;;;0.00;;
36725;SDS011;44936;52.086;5.150;2024-01-16T07:33:55;0.00;;;0.00;;
36725;SDS011;44936;52.086;5.150;2024-01-16T07:36:27;0.00;;;0.00;;
36725;SDS011;44936;52.086;5.150;2024-01-16T07:38:55;0.00;;;0.00;;
36725;SDS011;44936;52.086;5.150;2024-01-16T07:41:29;0.00;;;0.00;;
36725;SDS011;44936;52.086;5.150;2024-01-16T07:44:22;0.00;;;0.00;;
36725;SDS011;44936;52.086;5.150;2024-01-16T07:50:09;0.00;;;0.00;;
36725;SDS011;44936;52.086;5.150;2024-01-16T07:52:39;0.00;;;0.00;;
36725;SDS011;44936;52.086;5.150;2024-01-16T07:55:34;0.00;;;0.00;;
36725;SDS011;44936;52.086;5.150;2024-01-16T08:00:54;0.00;;;0.00;;
36725;SDS011;44936;52.086;5.150;2024-01-16T08:03:40;0.00;;;0.00;;
36725;SDS011;44936;52.086;5.150;2024-01-16T08:06:26;0.00;;;0.00;;
36725;SDS011;44936;52.086;5.150;2024-01-16T08:09:16;0.00;;;0.00;;
36725;SDS011;44936;52.086;5.150;2024-01-16T08:12:04;0.00;;;0.00;;
36725;SDS011;44936;52.086;5.150;2024-01-16T08:14:32;0.00;;;0.00;;
36725;SDS011;44936;52.086;5.150;2024-01-16T08:17:18;0.00;;;0.00;;
36725;SDS011;44936;52.086;5.150;2024-01-16T08:20:11;0.00;;;0.00;;
36725;SDS011;44936;52.086;5.150;2024-01-16T08:23:06;0.00;;;0.00;;
36725;SDS011;44936;52.086;5.150;2024-01-16T08:25:50;0.00;;;0.00;;
36725;SDS011;44936;52.086;5.150;2024-01-16T08:28:36;0.00;;;0.00;;
36725;SDS011;44936;52.086;5.150;2024-01-16T08:31:10;0.00;;;0.00;;
36725;SDS011;44936;52.086;5.150;2024-01-16T08:34:04;0.00;;;0.00;;
36725;SDS011;44936;52.086;5.150;2024-01-16T08:37:10;0.00;;;0.00;;
36725;SDS011;44936;52.086;5.150;2024-01-16T08:39:38;0.00;;;0.00;;
36725;SDS011;44936;52.086;5.150;2024-01-16T08:42:21;0.00;;;0.00;;
36725;SDS011;44936;52.086;5.150;2024-01-16T08:44:46;0.00;;;0.00;;
36725;SDS011;44936;52.086;5.150;2024-01-16T08:47:12;0.00;;;0.00;;
36725;SDS011;44936;52.086;5.150;2024-01-16T08:49:37;0.00;;;0.00;;
36725;SDS011;44936;52.086;5.150;2024-01-16T08:52:03;0.00;;;0.00;;
36725;SDS011;44936;52.086;5.150;2024-01-16T08:54:29;0.00;;;0.00;;
36725;SDS011;44936;52.086;5.150;2024-01-16T08:56:54;0.00;;;0.00;;
36725;SDS011;44936;52.086;5.150;2024-01-16T08:59:40;0.00;;;0.00;;
36725;SDS011;44936;52.086;5.150;2024-01-16T09:02:21;0.00;;;0.00;;
36725;SDS011;44936;52.086;5.150;2024-01-16T09:04:56;0.00;;;0.00;;
36725;SDS011;44936;52.086;5.150;2024-01-16T09:07:42;0.00;;;0.00;;
36725;SDS011;44936;52.086;5.150;2024-01-16T09:10:17;0.00;;;0.00;;
36725;SDS011;44936;52.086;5.150;2024-01-16T09:13:01;0.20;;;0.20;;
36725;SDS011;44936;52.086;5.150;2024-01-16T09:15:51;0.00;;;0.00;;
36725;SDS011;44936;52.086;5.150;2024-01-16T09:18:22;0.00;;;0.00;;
36725;SDS011;44936;52.086;5.150;2024-01-16T09:20:54;0.00;;;0.00;;
36725;SDS011;44936;52.086;5.150;2024-01-16T09:23:20;0.00;;;0.00;;
36725;SDS011;44936;52.086;5.150;2024-01-16T09:25:55;0.10;;;0.10;;
36725;SDS011;44936;52.086;5.150;2024-01-16T09:28:31;0.00;;;0.00;;
36725;SDS011;44936;52.086;5.150;2024-01-16T09:31:24;0.00;;;0.00;;
36725;SDS011;44936;52.086;5.150;2024-01-16T09:33:49;0.00;;;0.00;;
36725;SDS011;44936;52.086;5.150;2024-01-16T09:36:15;0.00;;;0.00;;
36725;SDS011;44936;52.086;5.150;2024-01-16T09:38:40;0.00;;;0.00;;
36725;SDS011;44936;52.086;5.150;2024-01-16T09:41:06;0.00;;;0.00;;
36725;SDS011;44936;52.086;5.150;2024-01-16T09:43:53;0.00;;;0.00;;
36725;SDS011;44936;52.086;5.150;2024-01-16T09:46:26;0.00;;;0.00;;
36725;SDS011;44936;52.086;5.150;2024-01-16T09:48:55;0.00;;;0.00;;
36725;SDS011;44936;52.086;5.150;2024-01-16T09:51:23;0.00;;;0.00;;
36725;SDS011;44936;52.086;5.150;2024-01-16T09:54:09;0.00;;;0.00;;
36725;SDS011;44936;52.086;5.150;2024-01-16T09:57:07;0.00;;;0.00;;
36725;SDS011;44936;52.086;5.150;2024-01-16T09:59:48;0.00;;;0.00;;
36725;SDS011;44936;52.086;5.150;2024-01-16T10:02:39;0.00;;;0.00;;
36725;SDS011;44936;52.086;5.150;2024-01-16T10:05:27;0.00;;;0.00;;
36725;SDS011;44936;52.086;5.150;2024-01-16T10:07:55;0.00;;;0.00;;
36725;SDS011;44936;52.086;5.150;2024-01-16T10:10:38;0.00;;;0.00;;
36725;SDS011;44936;52.086;5.150;2024-01-16T10:13:26;0.00;;;0.00;;
36725;SDS011;44936;52.086;5.150;2024-01-16T10:15:54;0.00;;;0.00;;
36725;SDS011;44936;52.086;5.150;2024-01-16T10:18:23;0.00;;;0.00;;
36725;SDS011;44936;52.086;5.150;2024-01-16T10:20:49;0.00;;;0.00;;
36725;SDS011;44936;52.086;5.150;2024-01-16T10:23:21;0.00;;;0.00;;
36725;SDS011;44936;52.086;5.150;2024-01-16T10:26:10;0.00;;;0.00;;
36725;SDS011;44936;52.086;5.150;2024-01-16T10:28:40;0.00;;;0.00;;
36725;SDS011;44936;52.086;5.150;2024-01-16T10:31:17;0.00;;;0.00;;
36725;SDS011;44936;52.086;5.150;2024-01-16T10:37:13;0.00;;;0.00;;
36725;SDS011;44936;52.086;5.150;2024-01-16T10:39:52;0.00;;;0.00;;
36725;SDS011;44936;52.086;5.150;2024-01-16T10:42:40;0.00;;;0.00;;
36725;SDS011;44936;52.086;5.150;2024-01-16T10:45:11;0.00;;;0.00;;
36725;SDS011;44936;52.086;5.150;2024-01-16T10:47:45;0.00;;;0.00;;
36725;SDS011;44936;52.086;5.150;2024-01-16T10:50:32;0.00;;;0.00;;
36725;SDS011;44936;52.086;5.150;2024-01-16T10:56:00;0.00;;;0.00;;
36725;SDS011;44936;52.086;5.150;2024-01-16T10:58:46;0.00;;;0.00;;
36725;SDS011;44936;52.086;5.150;2024-01-16T11:01:59;0.00;;;0.00;;
36725;SDS011;44936;52.086;5.150;2024-01-16T11:04:39;0.00;;;0.00;;
36725;SDS011;44936;52.086;5.150;2024-01-16T11:10:13;0.00;;;0.00;;
36725;SDS011;44936;52.086;5.150;2024-01-16T11:15:57;0.00;;;0.00;;
36725;SDS011;44936;52.086;5.150;2024-01-16T11:21:43;0.00;;;0.00;;
36725;SDS011;44936;52.086;5.150;2024-01-16T11:24:29;0.00;;;0.00;;
36725;SDS011;44936;52.086;5.150;2024-01-16T11:30:28;0.00;;;0.00;;
36725;SDS011;44936;52.086;5.150;2024-01-16T11:32:56;0.00;;;0.00;;
36725;SDS011;44936;52.086;5.150;2024-01-16T11:38:16;0.00;;;0.00;;
36725;SDS011;44936;52.086;5.150;2024-01-16T11:40:44;0.00;;;0.00;;
36725;SDS011;44936;52.086;5.150;2024-01-16T11:45:59;0.00;;;0.00;;
36725;SDS011;44936;52.086;5.150;2024-01-16T11:49:01;0.00;;;0.00;;
36725;SDS011;44936;52.086;5.150;2024-01-16T11:51:36;0.00;;;0.00;;
36725;SDS011;44936;52.086;5.150;2024-01-16T11:54:09;0.00;;;0.00;;
36725;SDS011;44936;52.086;5.150;2024-01-16T11:56:41;0.00;;;0.00;;
36725;SDS011;44936;52.086;5.150;2024-01-16T12:02:04;0.00;;;0.00;;
36725;SDS011;44936;52.086;5.150;2024-01-16T12:04:35;0.00;;;0.00;;
36725;SDS011;44936;52.086;5.150;2024-01-16T12:07:06;1.65;;;1.45;;
36725;SDS011;44936;52.086;5.150;2024-01-16T12:09:33;0.00;;;0.00;;
36725;SDS011;44936;52.086;5.150;2024-01-16T12:12:01;0.00;;;0.00;;
36725;SDS011;44936;52.086;5.150;2024-01-16T12:14:28;0.00;;;0.00;;
36725;SDS011;44936;52.086;5.150;2024-01-16T12:19:36;0.00;;;0.00;;
36725;SDS011;44936;52.086;5.150;2024-01-16T12:22:01;0.00;;;0.00;;
36725;SDS011;44936;52.086;5.150;2024-01-16T12:24:39;0.00;;;0.00;;
36725;SDS011;44936;52.086;5.150;2024-01-16T12:30:03;0.00;;;0.00;;
36725;SDS011;44936;52.086;5.150;2024-01-16T12:32:33;0.00;;;0.00;;
36725;SDS011;44936;52.086;5.150;2024-01-16T12:35:15;0.00;;;0.00;;
36725;SDS011;44936;52.086;5.150;2024-01-16T12:37:56;0.00;;;0.00;;
36725;SDS011;44936;52.086;5.150;2024-01-16T12:40:23;0.00;;;0.00;;
36725;SDS011;44936;52.086;5.150;2024-01-16T12:42:48;0.00;;;0.00;;
36725;SDS011;44936;52.086;5.150;2024-01-16T12:45:14;0.00;;;0.00;;
36725;SDS011;44936;52.086;5.150;2024-01-16T12:47:43;0.00;;;0.00;;
36725;SDS011;44936;52.086;5.150;2024-01-16T12:50:09;0.00;;;0.00;;
36725;SDS011;44936;52.086;5.150;2024-01-16T12:52:35;0.00;;;0.00;;
36725;SDS011;44936;52.086;5.150;2024-01-16T12:55:11;0.00;;;0.00;;
36725;SDS011;44936;52.086;5.150;2024-01-16T12:58:06;0.00;;;0.00;;
36725;SDS011;44936;52.086;5.150;2024-01-16T13:11:17;0.00;;;0.00;;
36725;SDS011;44936;52.086;5.150;2024-01-16T13:14:13;0.00;;;0.00;;
36725;SDS011;44936;52.086;5.150;2024-01-16T13:16:38;0.00;;;0.00;;
36725;SDS011;44936;52.086;5.150;2024-01-16T13:19:15;0.00;;;0.00;;
36725;SDS011;44936;52.086;5.150;2024-01-16T13:22:32;0.00;;;0.00;;
36725;SDS011;44936;52.086;5.150;2024-01-16T13:25:14;0.00;;;0.00;;
36725;SDS011;44936;52.086;5.150;2024-01-16T13:31:38;0.52;;;0.52;;
36725;SDS011;44936;52.086;5.150;2024-01-16T13:34:25;0.00;;;0.00;;
36725;SDS011;44936;52.086;5.150;2024-01-16T13:37:22;0.00;;;0.00;;
36725;SDS011;44936;52.086;5.150;2024-01-16T13:40:30;0.00;;;0.00;;
36725;SDS011;44936;52.086;5.150;2024-01-16T13:43:26;0.00;;;0.00;;
36725;SDS011;44936;52.086;5.150;2024-01-16T13:46:07;0.00;;;0.00;;
36725;SDS011;44936;52.086;5.150;2024-01-16T13:48:53;0.00;;;0.00;;
36725;SDS011;44936;52.086;5.150;2024-01-16T13:51:39;0.00;;;0.00;;
36725;SDS011;44936;52.086;5.150;2024-01-16T13:54:47;0.00;;;0.00;;
36725;SDS011;44936;52.086;5.150;2024-01-16T14:01:06;0.00;;;0.00;;
36725;SDS011;44936;52.086;5.150;2024-01-16T14:04:29;0.00;;;0.00;;
36725;SDS011;44936;52.086;5.150;2024-01-16T14:07:09;0.00;;;0.00;;
36725;SDS011;44936;52.086;5.150;2024-01-16T14:09:58;0.00;;;0.00;;
36725;SDS011;44936;52.086;5.150;2024-01-16T14:12:48;0.00;;;0.00;;
36725;SDS011;44936;52.086;5.150;2024-01-16T14:15:20;0.08;;;0.08;;
36725;SDS011;44936;52.086;5.150;2024-01-16T14:17:52;0.00;;;0.00;;
36725;SDS011;44936;52.086;5.150;2024-01-16T14:20:22;0.00;;;0.00;;
36725;SDS011;44936;52.086;5.150;2024-01-16T14:30:06;0.00;;;0.00;;
36725;SDS011;44936;52.086;5.150;2024-01-16T14:33:00;0.00;;;0.00;;
36725;SDS011;44936;52.086;5.150;2024-01-16T14:38:47;0.00;;;0.00;;
36725;SDS011;44936;52.086;5.150;2024-01-16T14:51:32;0.00;;;0.00;;
36725;SDS011;44936;52.086;5.150;2024-01-16T14:54:39;0.00;;;0.00;;
36725;SDS011;44936;52.086;5.150;2024-01-16T14:57:28;0.00;;;0.00;;
36725;SDS011;44936;52.086;5.150;2024-01-16T15:00:06;0.00;;;0.00;;
36725;SDS011;44936;52.086;5.150;2024-01-16T15:02:46;0.00;;;0.00;;
36725;SDS011;44936;52.086;5.150;2024-01-16T15:05:20;0.00;;;0.00;;
36725;SDS011;44936;52.086;5.150;2024-01-16T15:07:47;0.00;;;0.00;;
36725;SDS011;44936;52.086;5.150;2024-01-16T15:10:24;0.00;;;0.00;;
36725;SDS011;44936;52.086;5.150;2024-01-16T15:12:57;0.00;;;0.00;;
36725;SDS011;44936;52.086;5.150;2024-01-16T15:18:55;0.00;;;0.00;;
36725;SDS011;44936;52.086;5.150;2024-01-16T15:21:27;0.00;;;0.00;;
36725;SDS011;44936;52.086;5.150;2024-01-16T15:24:06;0.00;;;0.00;;
36725;SDS011;44936;52.086;5.150;2024-01-16T15:27:07;0.00;;;0.00;;
36725;SDS011;44936;52.086;5.150;2024-01-16T15:29:33;0.00;;;0.00;;
36725;SDS011;44936;52.086;5.150;2024-01-16T15:31:58;0.00;;;0.00;;
36725;SDS011;44936;52.086;5.150;2024-01-16T15:34:35;0.00;;;0.00;;
36725;SDS011;44936;52.086;5.150;2024-01-16T15:37:20;0.00;;;0.00;;
36725;SDS011;44936;52.086;5.150;2024-01-16T15:39:45;0.00;;;0.00;;
36725;SDS011;44936;52.086;5.150;2024-01-16T15:42:31;0.00;;;0.00;;
36725;SDS011;44936;52.086;5.150;2024-01-16T15:48:13;0.00;;;0.00;;
36725;SDS011;44936;52.086;5.150;2024-01-16T15:51:00;0.00;;;0.00;;
36725;SDS011;44936;52.086;5.150;2024-01-16T15:53:33;0.00;;;0.00;;
36725;SDS011;44936;52.086;5.150;2024-01-16T15:56:30;0.00;;;0.00;;
36725;SDS011;44936;52.086;5.150;2024-01-16T15:58:56;0.00;;;0.00;;
36725;SDS011;44936;52.086;5.150;2024-01-16T16:01:42;0.00;;;0.00;;
36725;SDS011;44936;52.086;5.150;2024-01-16T16:04:27;0.00;;;0.00;;
36725;SDS011;44936;52.086;5.150;2024-01-16T16:07:09;0.00;;;0.00;;
36725;SDS011;44936;52.086;5.150;2024-01-16T16:09:55;0.00;;;0.00;;
36725;SDS011;44936;52.086;5.150;2024-01-16T16:12:43;0.00;;;0.00;;
36725;SDS011;44936;52.086;5.150;2024-01-16T16:39:37;0.00;;;0.00;;
36725;SDS011;44936;52.086;5.150;2024-01-16T16:42:10;0.00;;;0.00;;
36725;SDS011;44936;52.086;5.150;2024-01-16T16:45:05;0.00;;;0.00;;
36725;SDS011;44936;52.086;5.150;2024-01-16T16:47:44;0.00;;;0.00;;
36725;SDS011;44936;52.086;5.150;2024-01-16T16:50:12;0.00;;;0.00;;
36725;SDS011;44936;52.086;5.150;2024-01-16T16:52:52;0.00;;;0.00;;
36725;SDS011;44936;52.086;5.150;2024-01-16T16:55:17;0.00;;;0.00;;
36725;SDS011;44936;52.086;5.150;2024-01-16T16:58:26;0.00;;;0.00;;
36725;SDS011;44936;52.086;5.150;2024-01-16T17:00:59;0.00;;;0.00;;
36725;SDS011;44936;52.086;5.150;2024-01-16T17:03:35;0.00;;;0.00;;
36725;SDS011;44936;52.086;5.150;2024-01-16T17:06:01;0.00;;;0.00;;
36725;SDS011;44936;52.086;5.150;2024-01-16T17:08:38;0.00;;;0.00;;
36725;SDS011;44936;52.086;5.150;2024-01-16T17:11:11;0.00;;;0.00;;
36725;SDS011;44936;52.086;5.150;2024-01-16T17:14:07;0.00;;;0.00;;
36725;SDS011;44936;52.086;5.150;2024-01-16T17:16:44;0.00;;;0.00;;
36725;SDS011;44936;52.086;5.150;2024-01-16T17:19:11;0.00;;;0.00;;
36725;SDS011;44936;52.086;5.150;2024-01-16T17:22:07;1.08;;;0.98;;
36725;SDS011;44936;52.086;5.150;2024-01-16T17:24:57;0.00;;;0.00;;
36725;SDS011;44936;52.086;5.150;2024-01-16T17:27:42;3.60;;;1.50;;
36725;SDS011;44936;52.086;5.150;2024-01-16T17:30:17;6.68;;;1.88;;
36725;SDS011;44936;52.086;5.150;2024-01-16T17:32:42;4.25;;;1.25;;
36725;SDS011;44936;52.086;5.150;2024-01-16T17:35:08;2.72;;;1.40;;
36725;SDS011;44936;52.086;5.150;2024-01-16T17:37:36;4.00;;;1.60;;
36725;SDS011;44936;52.086;5.150;2024-01-16T17:43:32;6.32;;;1.70;;
36725;SDS011;44936;52.086;5.150;2024-01-16T17:45:58;4.85;;;1.70;;
36725;SDS011;44936;52.086;5.150;2024-01-16T17:48:26;4.57;;;1.40;;
36725;SDS011;44936;52.086;5.150;2024-01-16T17:50:52;4.05;;;1.73;;
36725;SDS011;44936;52.086;5.150;2024-01-16T17:53:18;3.55;;;1.70;;
36725;SDS011;44936;52.086;5.150;2024-01-16T17:55:44;4.18;;;1.60;;
36725;SDS011;44936;52.086;5.150;2024-01-16T17:58:12;6.55;;;1.90;;
36725;SDS011;44936;52.086;5.150;2024-01-16T18:00:37;5.05;;;1.40;;
36725;SDS011;44936;52.086;5.150;2024-01-16T18:03:03;4.55;;;1.75;;
36725;SDS011;44936;52.086;5.150;2024-01-16T18:05:29;6.03;;;1.52;;
36725;SDS011;44936;52.086;5.150;2024-01-16T18:07:55;4.68;;;1.67;;
36725;SDS011;44936;52.086;5.150;2024-01-16T18:10:21;4.88;;;1.40;;
36725;SDS011;44936;52.086;5.150;2024-01-16T18:12:46;6.43;;;1.73;;
36725;SDS011;44936;52.086;5.150;2024-01-16T18:15:12;4.30;;;1.45;;
36725;SDS011;44936;52.086;5.150;2024-01-16T18:17:38;4.88;;;1.98;;